Time;durP1;ratioP1;P1;durP2;ratioP2;P2;SDS_P1;SDS_P2;PMS_P1;PMS_P2;Temp;Humidity;BMP_temperature;BMP_pressure;BME280_temperature;BME280_humidity;BME280_pressure;Samples;Min_cycle;Max_cycle;Signal;HPM_P1;HPM_P2
2022/11/06 00:04:41;;;;;;;15.30;8.40;;;;;;;6.47;81.21;100179.00;210249;1294;139721;-69
2022/11/06 00:09:45;;;;;;;21.00;11.50;;;;;;;6.40;80.78;100183.14;210337;1300;140482;-69
2022/11/06 00:14:49;;;;;;;16.10;9.60;;;;;;;6.34;80.74;100186.55;210273;1294;140368;-69
2022/11/06 00:19:53;;;;;;;13.60;7.80;;;;;;;6.27;80.55;100183.64;210352;1302;140295;-69
2022/11/06 00:24:56;;;;;;;12.60;10.30;;;;;;;6.14;80.80;100187.19;210323;1302;139712;-69
2022/11/06 00:30:00;;;;;;;18.50;9.30;;;;;;;5.99;80.49;100193.34;209712;1294;140204;-68
2022/11/06 00:35:04;;;;;;;17.10;8.90;;;;;;;5.88;80.19;100194.41;210307;1294;141079;-69
2022/11/06 00:40:09;;;;;;;13.60;9.30;;;;;;;5.76;79.77;100200.27;210475;1294;140988;-69
2022/11/06 00:45:13;;;;;;;18.10;9.60;;;;;;;5.64;80.17;100206.68;210203;1294;141077;-69
2022/11/06 00:50:17;;;;;;;14.60;10.10;;;;;;;5.51;79.96;100208.68;208827;1290;141217;-69
2022/11/06 00:55:21;;;;;;;13.10;7.90;;;;;;;5.28;79.62;100212.10;208591;1299;140903;-68
2022/11/06 01:00:25;;;;;;;15.20;6.90;;;;;;;5.11;79.51;100218.31;206994;1288;140516;-68
2022/11/06 01:05:28;;;;;;;14.60;8.60;;;;;;;4.98;79.43;100223.23;207098;1295;143076;-68
2022/11/06 01:11:20;;;;;;;16.00;9.70;;;;;;;4.89;79.67;100222.58;206491;1339;658559;-68
2022/11/06 01:16:25;;;;;;;15.20;10.60;;;;;;;4.72;79.89;100220.05;205043;1308;139081;-68
2022/11/06 01:21:33;;;;;;;9.50;7.20;;;;;;;4.53;79.50;100215.81;205076;1311;480220;-68
2022/11/06 01:26:37;;;;;;;15.00;9.00;;;;;;;4.38;79.62;100218.33;205694;1304;140157;-68
2022/11/06 01:32:02;;;;;;;11.90;7.50;;;;;;;4.23;79.77;100220.20;208458;1305;138757;-67
2022/11/06 01:37:07;;;;;;;15.30;8.00;;;;;;;4.11;79.74;100224.60;208476;1295;139569;-68
2022/11/06 01:42:20;;;;;;;13.60;7.60;;;;;;;3.98;79.84;100228.27;205242;1310;138272;-67
2022/11/06 01:47:28;;;;;;;11.50;7.20;;;;;;;3.90;79.97;100232.37;208959;1289;140132;-67
2022/11/06 01:52:33;;;;;;;13.90;8.30;;;;;;;3.82;79.68;100233.98;206719;1302;140714;-68
2022/11/06 01:57:38;;;;;;;13.20;8.80;;;;;;;3.70;79.79;100240.64;210230;1301;139551;-68
2022/11/06 02:02:42;;;;;;;14.90;8.20;;;;;;;3.63;80.01;100250.64;210158;1302;138873;-69
2022/11/06 02:07:47;;;;;;;10.70;7.60;;;;;;;3.46;79.69;100249.17;210012;1294;140578;-69
2022/11/06 02:13:16;;;;;;;17.40;9.00;;;;;;;3.29;79.74;100242.05;209989;1301;138648;-68
2022/11/06 02:18:43;;;;;;;13.30;8.40;;;;;;;3.20;79.87;100240.50;210193;1296;141118;-69
2022/11/06 02:24:17;;;;;;;9.40;7.50;;;;;;;3.15;79.89;100244.94;210127;1297;140730;-69
2022/11/06 02:29:51;;;;;;;12.00;8.20;;;;;;;3.15;80.12;100249.13;210074;1294;139130;-69
2022/11/06 02:34:59;;;;;;;13.30;7.30;;;;;;;3.07;79.97;100254.77;210078;1304;139935;-70
2022/11/06 02:40:08;;;;;;;17.30;6.80;;;;;;;2.98;79.92;100262.23;210056;1304;139905;-68
2022/11/06 02:45:16;;;;;;;17.20;7.70;;;;;;;2.93;79.74;100264.23;210051;1298;138900;-69
2022/11/06 02:50:28;;;;;;;21.10;9.20;;;;;;;2.85;79.78;100264.42;208861;1291;140220;-68
2022/11/06 02:55:49;;;;;;;9.20;5.80;;;;;;;2.69;79.45;100258.48;208291;1302;138879;-68
2022/11/06 03:01:05;;;;;;;13.20;7.00;;;;;;;2.53;79.87;100265.77;206889;1301;139217;-68
2022/11/06 03:06:41;;;;;;;11.00;7.30;;;;;;;2.41;80.14;100264.02;210048;1303;139490;-68
2022/11/06 03:11:58;;;;;;;13.00;8.10;;;;;;;2.36;80.34;100263.11;210028;1305;139572;-68
2022/11/06 03:17:36;;;;;;;11.40;7.40;;;;;;;2.29;80.10;100270.65;210005;1299;140419;-69
2022/11/06 03:22:54;;;;;;;13.10;7.20;;;;;;;2.22;80.42;100270.06;210239;1298;151551;-67
2022/11/06 03:27:59;;;;;;;8.80;5.90;;;;;;;2.16;80.32;100277.86;210303;1299;139632;-68
2022/11/06 03:33:03;;;;;;;11.20;7.80;;;;;;;2.01;80.21;100273.95;209102;1295;138697;-68
2022/11/06 03:38:19;;;;;;;15.70;8.30;;;;;;;1.94;80.39;100282.23;210201;1298;139464;-68
2022/11/06 03:43:28;;;;;;;11.10;8.10;;;;;;;1.89;80.70;100287.34;209980;1301;139989;-68
2022/11/06 03:48:41;;;;;;;12.60;9.50;;;;;;;1.89;80.73;100294.69;210022;1304;141046;-68
2022/11/06 03:53:51;;;;;;;14.60;10.20;;;;;;;1.90;80.94;100294.42;210183;1298;150617;-68
2022/11/06 03:58:57;;;;;;;13.60;10.10;;;;;;;1.82;80.59;100295.42;210246;1304;139272;-68
2022/11/06 04:04:13;;;;;;;14.50;8.70;;;;;;;1.75;80.56;100292.27;210298;1302;140232;-68
2022/11/06 04:14:48;;;;;;;13.10;8.10;;;;;;;1.57;80.32;100291.30;210110;1298;140938;-68
2022/11/06 04:19:57;;;;;;;16.60;12.20;;;;;;;1.52;80.64;100288.23;209910;1304;139503;-68
2022/11/06 04:31:32;;;;;;;15.10;9.80;;;;;;;1.45;81.05;100288.77;210169;1298;139004;-68
2022/11/06 04:37:01;;;;;;;13.10;9.30;;;;;;;1.44;81.03;100278.85;209166;1303;224269;-68
2022/11/06 04:42:21;;;;;;;19.10;10.50;;;;;;;1.48;80.91;100281.29;209988;1290;244125;-68
2022/11/06 04:47:25;;;;;;;11.90;8.30;;;;;;;1.43;80.65;100275.47;208636;1297;140340;-68
2022/11/06 04:52:29;;;;;;;13.20;9.50;;;;;;;1.33;80.44;100270.88;208273;1298;140590;-68
2022/11/06 04:57:32;;;;;;;20.80;14.50;;;;;;;1.28;81.09;100275.52;207423;1292;140308;-68
2022/11/06 05:02:36;;;;;;;19.00;12.80;;;;;;;1.27;81.33;100271.03;208549;1301;139276;-67
2022/11/06 05:07:41;;;;;;;17.90;11.30;;;;;;;1.33;82.01;100276.55;206741;1297;138693;-68
2022/11/06 05:12:46;;;;;;;17.50;11.50;;;;;;;1.38;81.78;100278.64;206778;1296;142270;-67
2022/11/06 05:17:51;;;;;;;15.50;11.90;;;;;;;1.35;81.53;100280.67;206603;1289;140258;-67
2022/11/06 05:22:59;;;;;;;19.30;13.10;;;;;;;1.33;81.95;100280.86;209689;1288;140271;-67
2022/11/06 05:28:08;;;;;;;15.90;13.30;;;;;;;1.34;81.90;100277.13;209025;1304;139957;-67
2022/11/06 05:33:13;;;;;;;22.90;13.90;;;;;;;1.30;81.81;100272.51;208313;1297;139713;-67
2022/11/06 05:38:18;;;;;;;22.70;15.60;;;;;;;1.13;81.99;100274.14;210043;1298;142138;-67
2022/11/06 05:43:23;;;;;;;17.90;13.50;;;;;;;1.11;82.59;100282.63;209004;1299;141883;-65
2022/11/06 05:48:28;;;;;;;15.00;10.90;;;;;;;1.13;82.72;100284.30;207618;1291;139929;-67
2022/11/06 05:53:35;;;;;;;17.50;12.50;;;;;;;1.10;82.75;100283.55;209892;1298;140434;-64
2022/11/06 05:58:39;;;;;;;27.70;18.70;;;;;;;1.09;82.99;100282.79;209892;1290;140117;-64
2022/11/06 06:03:44;;;;;;;26.80;15.00;;;;;;;1.19;83.36;100288.92;209255;1296;140696;-63
2022/11/06 06:08:50;;;;;;;19.80;14.10;;;;;;;1.33;83.82;100297.39;209854;1304;140136;-69
2022/11/06 06:13:54;;;;;;;25.40;16.20;;;;;;;1.53;84.02;100304.31;209950;1299;141198;-67
2022/11/06 06:18:58;;;;;;;20.50;15.30;;;;;;;1.73;83.78;100309.91;209875;1298;140702;-67
2022/11/06 06:24:03;;;;;;;29.80;17.30;;;;;;;1.87;83.62;100316.35;210005;1298;141815;-67
2022/11/06 06:29:07;;;;;;;28.00;20.30;;;;;;;2.03;84.24;100320.14;210133;1298;143057;-66
2022/11/06 06:34:10;;;;;;;26.80;18.40;;;;;;;2.25;84.25;100328.95;210111;1298;237968;-67
2022/11/06 06:39:14;;;;;;;28.40;19.30;;;;;;;2.47;84.34;100334.86;209854;1305;141422;-64
2022/11/06 06:44:19;;;;;;;31.50;21.10;;;;;;;2.65;83.88;100338.16;209894;1304;140358;-65
2022/11/06 06:49:23;;;;;;;21.70;14.90;;;;;;;2.75;83.77;100337.95;209907;1303;140010;-68
2022/11/06 06:54:27;;;;;;;40.70;21.00;;;;;;;2.70;83.29;100334.72;210087;1294;139988;-68
2022/11/06 06:59:32;;;;;;;30.10;20.20;;;;;;;2.72;83.55;100335.47;210077;1298;141232;-67
2022/11/06 07:04:37;;;;;;;33.20;19.50;;;;;;;2.89;84.06;100339.94;210049;1298;140818;-67
2022/11/06 07:09:43;;;;;;;30.40;20.90;;;;;;;3.10;83.80;100345.05;207731;1296;140156;-68
2022/11/06 07:14:47;;;;;;;25.90;18.00;;;;;;;3.19;83.78;100345.62;206786;1289;151084;-68
2022/11/06 07:19:52;;;;;;;22.30;18.10;;;;;;;3.28;84.13;100341.27;209979;1298;139976;-69
2022/11/06 07:24:58;;;;;;;23.20;18.10;;;;;;;3.35;84.11;100340.48;209889;1304;139842;-68
2022/11/06 07:30:03;;;;;;;19.90;13.90;;;;;;;3.42;83.99;100342.00;207167;1298;141061;-68
2022/11/06 07:35:09;;;;;;;19.60;15.00;;;;;;;3.46;84.09;100343.39;207942;1291;140679;-68
2022/11/06 07:40:14;;;;;;;23.70;14.50;;;;;;;3.54;84.50;100344.84;208754;1294;141503;-69
2022/11/06 07:45:20;;;;;;;20.10;16.40;;;;;;;3.71;84.88;100345.52;207251;1288;141603;-70
2022/11/06 07:50:26;;;;;;;19.80;16.40;;;;;;;4.02;85.13;100338.52;209874;1296;140876;-70
2022/11/06 07:55:31;;;;;;;24.90;17.70;;;;;;;4.34;85.09;100337.94;209864;1298;142548;-71
2022/11/06 08:00:56;;;;;;;22.40;15.60;;;;;;;4.62;85.08;100327.79;210116;1296;140321;-70
2022/11/06 08:06:06;;;;;;;25.10;15.90;;;;;;;5.03;85.73;100332.16;209959;1298;140462;-70
2022/11/06 08:11:12;;;;;;;13.60;10.40;;;;;;;5.47;85.85;100330.55;209849;1292;140058;-70
2022/11/06 08:16:18;;;;;;;23.00;14.90;;;;;;;5.75;85.28;100336.63;209841;1298;140593;-70
2022/11/06 08:21:23;;;;;;;23.50;15.80;;;;;;;6.04;85.36;100334.41;209900;1298;140546;-71
2022/11/06 08:26:29;;;;;;;22.90;14.90;;;;;;;6.41;85.65;100335.71;209915;1298;146928;-71
2022/11/06 08:31:35;;;;;;;22.70;15.60;;;;;;;6.73;85.61;100338.04;210060;1297;246191;-71
2022/11/06 08:36:49;;;;;;;21.60;15.40;;;;;;;6.87;85.40;100337.30;209861;1298;141034;-69
2022/11/06 08:41:53;;;;;;;27.50;15.60;;;;;;;6.89;84.71;100335.52;210068;1285;140333;-69
2022/11/06 08:46:57;;;;;;;20.60;14.00;;;;;;;6.90;84.80;100337.27;209929;1298;141534;-70
2022/11/06 08:52:01;;;;;;;29.40;16.70;;;;;;;7.01;84.75;100341.14;210128;1298;141306;-70
2022/11/06 08:57:05;;;;;;;22.70;13.10;;;;;;;7.20;84.93;100345.74;209851;1298;140039;-69
2022/11/06 09:02:12;;;;;;;16.90;11.90;;;;;;;7.36;85.04;100345.67;209773;1294;142088;-68
2022/11/06 09:07:18;;;;;;;15.70;12.70;;;;;;;7.56;85.09;100348.32;209262;1287;140362;-67
2022/11/06 09:12:23;;;;;;;18.20;12.90;;;;;;;7.88;85.38;100350.63;208983;1278;140927;-68
2022/11/06 09:17:28;;;;;;;20.10;12.70;;;;;;;8.20;85.12;100347.99;209705;1286;141565;-67
2022/11/06 09:22:34;;;;;;;9.40;7.70;;;;;;;8.51;85.18;100340.23;210120;1294;142978;-69
2022/11/06 09:27:43;;;;;;;16.00;9.50;;;;;;;8.85;85.03;100341.70;209330;1277;139750;-69
2022/11/06 09:32:52;;;;;;;12.10;8.30;;;;;;;9.10;84.40;100343.26;208685;1302;140031;-68
2022/11/06 09:38:06;;;;;;;10.60;7.40;;;;;;;9.31;84.21;100343.33;209287;1287;140422;-68
2022/11/06 09:43:36;;;;;;;7.70;6.90;;;;;;;9.50;83.51;100346.67;208861;1287;141738;-68
2022/11/06 09:49:12;;;;;;;13.10;6.00;;;;;;;9.64;82.92;100336.94;210303;1278;139905;-68
2022/11/06 09:54:35;;;;;;;18.10;11.40;;;;;;;9.89;82.63;100332.59;208811;1295;141077;-68
2022/11/06 09:59:42;;;;;;;11.00;8.40;;;;;;;10.08;82.42;100328.08;210312;1281;140392;-67
2022/11/06 10:04:59;;;;;;;9.60;7.30;;;;;;;10.35;82.07;100330.23;210307;1295;142139;-68
2022/11/06 10:10:06;;;;;;;18.90;8.00;;;;;;;10.58;81.62;100333.90;210319;1278;141666;-68
2022/11/06 10:15:29;;;;;;;15.80;8.30;;;;;;;10.79;81.19;100334.26;210150;1271;222425;-69
2022/11/06 10:20:52;;;;;;;11.90;8.00;;;;;;;10.96;80.48;100328.96;210152;1288;141172;-66
2022/11/06 10:26:17;;;;;;;10.40;7.80;;;;;;;11.14;80.31;100319.86;210220;1302;140047;-67
2022/11/06 10:31:32;;;;;;;10.40;7.60;;;;;;;11.27;79.46;100311.02;210258;1295;139611;-69
2022/11/06 10:36:46;;;;;;;6.20;4.70;;;;;;;11.40;78.86;100309.54;210371;1295;140293;-69
2022/11/06 10:42:17;;;;;;;8.20;4.30;;;;;;;11.54;78.39;100311.09;210290;1294;140981;-69
2022/11/06 10:47:26;;;;;;;7.10;3.30;;;;;;;11.67;77.89;100310.23;210144;1295;140052;-69
2022/11/06 10:52:47;;;;;;;5.30;3.00;;;;;;;11.76;77.24;100307.98;210181;1295;141772;-67
2022/11/06 10:58:14;;;;;;;6.90;3.30;;;;;;;11.89;76.65;100311.16;210381;1295;141124;-68
2022/11/06 11:03:46;;;;;;;5.30;2.90;;;;;;;11.96;75.97;100306.24;210381;1293;140835;-67
2022/11/06 11:08:51;;;;;;;6.00;4.10;;;;;;;11.93;75.25;100302.81;210124;1294;140091;-68
2022/11/06 11:13:56;;;;;;;4.70;2.80;;;;;;;12.08;75.54;100296.23;208130;1285;140623;-68
2022/11/06 11:19:33;;;;;;;2.40;2.20;;;;;;;12.19;74.88;100287.42;210208;1295;140786;-68
2022/11/06 11:25:06;;;;;;;7.20;3.00;;;;;;;12.15;74.08;100284.54;210261;1293;141503;-68
2022/11/06 11:30:30;;;;;;;4.30;2.80;;;;;;;12.29;73.80;100280.25;210120;1294;140255;-69
2022/11/06 11:35:37;;;;;;;6.40;2.80;;;;;;;12.38;73.09;100268.33;207267;1294;140107;-69
2022/11/06 11:41:19;;;;;;;9.30;2.50;;;;;;;12.36;72.83;100259.19;207008;1284;226293;-69
2022/11/06 11:46:26;;;;;;;3.20;1.50;;;;;;;12.40;72.65;100257.27;210228;1295;140215;-69
2022/11/06 11:51:39;;;;;;;8.00;2.80;;;;;;;12.36;71.76;100247.39;210471;1295;140734;-69
2022/11/06 11:57:18;;;;;;;3.80;2.40;;;;;;;12.39;71.80;100247.04;208743;1285;139933;-69
2022/11/06 12:02:55;;;;;;;8.40;2.50;;;;;;;12.44;71.38;100239.88;209118;1285;140721;-67
2022/11/06 12:08:00;;;;;;;5.60;2.60;;;;;;;12.43;70.65;100237.06;210073;1287;141097;-67
2022/11/06 12:13:19;;;;;;;7.40;3.10;;;;;;;12.41;70.33;100228.52;209174;1288;139695;-69
2022/11/06 12:18:40;;;;;;;3.00;2.30;;;;;;;12.32;70.19;100226.52;209872;1295;141193;-70
2022/11/06 12:24:00;;;;;;;4.60;2.80;;;;;;;12.31;70.20;100221.85;210411;1294;140381;-69
2022/11/06 12:29:32;;;;;;;3.60;2.30;;;;;;;12.28;70.05;100209.56;210395;1295;140585;-69
2022/11/06 12:34:52;;;;;;;8.80;3.40;;;;;;;12.33;70.12;100198.83;210317;1295;140053;-69
2022/11/06 12:40:22;;;;;;;5.50;3.80;;;;;;;12.30;69.30;100192.60;210451;1294;140100;-69
2022/11/06 12:45:45;;;;;;;9.10;3.10;;;;;;;12.28;69.31;100188.92;210065;1294;224619;-69
2022/11/06 12:51:00;;;;;;;9.80;4.50;;;;;;;12.12;68.67;100177.85;210196;1290;139875;-70
2022/11/06 12:56:24;;;;;;;6.50;3.60;;;;;;;12.00;68.58;100178.59;210420;1294;138965;-68
2022/11/06 13:01:54;;;;;;;4.20;2.60;;;;;;;11.84;68.65;100175.81;210325;1295;139921;-70
2022/11/06 13:07:37;;;;;;;5.40;3.50;;;;;;;11.78;68.97;100174.51;210320;1302;140201;-70
2022/11/06 13:12:53;;;;;;;2.90;2.40;;;;;;;11.84;69.24;100169.90;210285;1286;225011;-68
2022/11/06 13:18:14;;;;;;;6.00;2.90;;;;;;;11.77;68.55;100168.59;210148;1294;139633;-70
2022/11/06 13:23:36;;;;;;;3.70;2.80;;;;;;;11.73;68.61;100171.42;208812;1300;468920;-68
2022/11/06 13:28:49;;;;;;;13.60;4.70;;;;;;;11.73;68.82;100164.59;210403;1294;139764;-68
2022/11/06 13:33:57;;;;;;;6.40;3.50;;;;;;;11.75;68.97;100165.00;208452;1293;140346;-68
2022/11/06 13:39:30;;;;;;;6.30;3.10;;;;;;;11.74;68.63;100166.38;208376;1287;140106;-70
2022/11/06 13:44:34;;;;;;;7.80;4.10;;;;;;;11.65;68.63;100162.89;209887;1295;161181;-72
2022/11/06 13:50:02;;;;;;;5.30;3.70;;;;;;;11.62;68.52;100155.10;209258;1294;220678;-72
2022/11/06 13:55:39;;;;;;;7.60;3.00;;;;;;;11.51;68.36;100157.51;207154;1285;140457;-70
2022/11/06 14:01:12;;;;;;;5.80;4.50;;;;;;;11.31;68.24;100156.89;210160;1295;140312;-70
2022/11/06 14:06:29;;;;;;;9.00;4.50;;;;;;;11.18;68.54;100151.51;210268;1294;249563;-69
2022/11/06 14:11:41;;;;;;;9.00;3.70;;;;;;;11.14;68.81;100153.33;208410;1300;139625;-70
2022/11/06 14:17:18;;;;;;;10.10;4.20;;;;;;;11.05;68.85;100155.10;209688;1301;140579;-69
2022/11/06 14:22:35;;;;;;;3.60;2.70;;;;;;;10.97;68.84;100157.48;207123;1278;140094;-70
2022/11/06 14:27:39;;;;;;;6.50;3.70;;;;;;;10.80;68.68;100153.27;207340;1284;139962;-69
2022/11/06 14:32:46;;;;;;;8.20;3.60;;;;;;;10.63;68.82;100157.52;207062;1294;140531;-67
2022/11/06 14:38:08;;;;;;;7.40;2.50;;;;;;;10.44;68.97;100153.95;210271;1285;141112;-69
2022/11/06 14:43:25;;;;;;;2.30;1.80;;;;;;;10.21;68.96;100152.89;210341;1287;139492;-69
2022/11/06 14:48:42;;;;;;;3.50;2.10;;;;;;;9.95;68.98;100147.53;210356;1302;141016;-70
2022/11/06 14:53:50;;;;;;;5.10;2.80;;;;;;;9.69;68.90;100149.91;210201;1295;142170;-70
2022/11/06 14:59:01;;;;;;;6.70;2.40;;;;;;;9.42;69.02;100149.31;210097;1295;141139;-68
2022/11/06 15:04:17;;;;;;;2.40;2.20;;;;;;;9.11;68.93;100151.23;210451;1294;140626;-67
2022/11/06 15:09:22;;;;;;;3.30;2.70;;;;;;;8.81;69.08;100147.68;210220;1295;140621;-68
2022/11/06 15:14:29;;;;;;;4.70;3.70;;;;;;;8.51;69.34;100150.73;210225;1295;140043;-67
2022/11/06 15:19:54;;;;;;;4.80;2.70;;;;;;;8.12;68.87;100148.52;210251;1295;141613;-69
2022/11/06 15:25:12;;;;;;;5.90;2.70;;;;;;;7.62;69.18;100144.60;210307;1296;139780;-69
2022/11/06 15:30:19;;;;;;;11.60;2.90;;;;;;;7.43;70.22;100144.40;210156;1294;235017;-71
2022/11/06 15:35:26;;;;;;;12.30;3.20;;;;;;;7.17;69.77;100133.38;210101;1295;139656;-71
2022/11/06 15:40:36;;;;;;;1.50;1.40;;;;;;;6.92;70.24;100133.31;210260;1295;142113;-68
2022/11/06 15:45:41;;;;;;;3.40;3.10;;;;;;;6.68;70.46;100131.90;208867;1278;218669;-69
2022/11/06 15:50:45;;;;;;;5.30;1.90;;;;;;;6.45;70.76;100128.56;209166;1293;139434;-71
2022/11/06 15:55:55;;;;;;;6.20;3.40;;;;;;;6.13;70.76;100119.19;209828;1286;139517;-72
2022/11/06 16:01:00;;;;;;;24.70;8.50;;;;;;;5.87;70.98;100119.02;207140;1286;141327;-70
2022/11/06 16:06:07;;;;;;;18.70;9.60;;;;;;;5.65;71.72;100115.30;210320;1287;140604;-68
2022/11/06 16:11:14;;;;;;;19.50;11.20;;;;;;;5.49;71.69;100122.51;210263;1302;154043;-69
2022/11/06 16:16:43;;;;;;;10.90;5.90;;;;;;;5.37;71.99;100125.02;210251;1291;142518;-69
2022/11/06 16:22:04;;;;;;;9.30;5.10;;;;;;;5.24;72.11;100122.96;209149;1295;139991;-70
2022/11/06 16:27:10;;;;;;;15.50;7.30;;;;;;;5.00;72.27;100123.15;207125;1291;138653;-69
2022/11/06 16:32:18;;;;;;;12.90;8.40;;;;;;;4.87;72.56;100126.34;206912;1281;140837;-72
2022/11/06 16:37:30;;;;;;;15.90;10.80;;;;;;;4.77;72.69;100128.13;210335;1295;141603;-72
2022/11/06 16:42:37;;;;;;;21.90;12.40;;;;;;;4.56;72.77;100130.50;210353;1302;140586;-70
2022/11/06 16:48:07;;;;;;;17.60;9.00;;;;;;;4.34;72.85;100124.64;210307;1294;140366;-71
2022/11/06 16:53:21;;;;;;;18.80;12.80;;;;;;;4.11;73.05;100122.94;210326;1302;140658;-72
2022/11/06 16:58:27;;;;;;;22.80;12.80;;;;;;;4.00;73.31;100122.66;210207;1295;140973;-71
2022/11/06 17:03:48;;;;;;;19.30;11.20;;;;;;;3.87;73.53;100119.62;210172;1295;140798;-70
2022/11/06 17:08:57;;;;;;;25.50;15.30;;;;;;;3.78;74.06;100117.01;210224;1295;140855;-70
2022/11/06 17:14:20;;;;;;;22.70;14.80;;;;;;;3.79;74.46;100114.95;210246;1295;140100;-70
2022/11/06 17:19:27;;;;;;;19.30;14.10;;;;;;;3.80;74.73;100115.17;210211;1300;140879;-70
2022/11/06 17:24:31;;;;;;;18.80;13.30;;;;;;;3.77;74.67;100115.00;210225;1299;139671;-70
2022/11/06 17:29:40;;;;;;;26.40;15.90;;;;;;;3.57;74.16;100112.30;210185;1297;140946;-69
2022/11/06 17:34:44;;;;;;;34.00;14.60;;;;;;;3.31;74.15;100114.92;209360;1295;140237;-67
2022/11/06 17:39:47;;;;;;;30.80;18.10;;;;;;;3.22;74.63;100118.66;210231;1294;140562;-69
2022/11/06 17:44:51;;;;;;;23.70;17.10;;;;;;;3.23;75.17;100102.92;210275;1280;140788;-70
2022/11/06 17:49:57;;;;;;;33.10;15.90;;;;;;;3.22;75.04;100093.77;210364;1294;140595;-71
2022/11/06 17:55:01;;;;;;;29.60;18.80;;;;;;;3.14;75.08;100090.98;209848;1295;139440;-69
2022/11/06 18:00:08;;;;;;;31.30;16.50;;;;;;;3.09;75.12;100087.39;210421;1301;139976;-66
2022/11/06 18:05:13;;;;;;;51.30;27.30;;;;;;;3.12;75.60;100077.85;209420;1295;161990;-67
2022/11/06 18:10:20;;;;;;;41.30;23.80;;;;;;;3.14;75.55;100072.90;210312;1294;139086;-68
2022/11/06 18:15:35;;;;;;;99.10;48.30;;;;;;;2.94;75.16;100072.73;210449;1287;140840;-68
2022/11/06 18:20:45;;;;;;;92.80;48.10;;;;;;;2.75;75.53;100078.30;210288;1295;139565;-69
2022/11/06 18:25:55;;;;;;;114.50;57.00;;;;;;;2.75;75.93;100080.27;208648;1297;140751;-69
2022/11/06 18:30:59;;;;;;;139.90;55.20;;;;;;;2.79;75.95;100073.45;207149;1284;141519;-68
2022/11/06 18:36:07;;;;;;;115.20;53.80;;;;;;;2.71;75.69;100063.23;207084;1295;141211;-69
2022/11/06 18:41:17;;;;;;;58.50;28.30;;;;;;;2.67;76.19;100063.64;206904;1295;140637;-69
2022/11/06 18:46:26;;;;;;;33.10;19.20;;;;;;;2.67;76.46;100063.22;210403;1295;139541;-69
2022/11/06 18:51:32;;;;;;;43.20;25.90;;;;;;;2.72;76.66;100061.08;210076;1301;140911;-69
2022/11/06 18:56:39;;;;;;;39.80;25.10;;;;;;;2.85;77.79;100052.89;210283;1299;141303;-69
2022/11/06 19:01:44;;;;;;;42.70;27.10;;;;;;;2.96;78.22;100048.63;210221;1301;140276;-69
2022/11/06 19:06:49;;;;;;;44.90;25.30;;;;;;;3.07;78.32;100041.63;210237;1291;140581;-69
2022/11/06 19:11:54;;;;;;;36.40;21.80;;;;;;;3.18;78.57;100037.86;210328;1295;141772;-69
2022/11/06 19:16:57;;;;;;;41.50;26.80;;;;;;;3.24;78.94;100034.48;210528;1295;140178;-69
2022/11/06 19:22:01;;;;;;;51.70;28.40;;;;;;;3.32;79.63;100035.16;210630;1295;139945;-69
2022/11/06 19:27:04;;;;;;;45.30;29.60;;;;;;;3.49;79.77;100043.70;210262;1297;141539;-69
2022/11/06 19:32:08;;;;;;;46.40;30.70;;;;;;;3.63;79.84;100033.38;210285;1282;140874;-69
2022/11/06 19:37:12;;;;;;;59.50;30.80;;;;;;;3.73;79.97;100028.49;210186;1297;140426;-69
2022/11/06 19:42:18;;;;;;;43.10;27.90;;;;;;;3.83;79.89;100029.65;210463;1299;141780;-69
2022/11/06 19:47:24;;;;;;;46.00;26.20;;;;;;;3.85;80.14;100026.88;210433;1293;150872;-69
2022/11/06 19:52:32;;;;;;;44.90;28.50;;;;;;;3.88;80.24;100024.36;210469;1294;139655;-69
2022/11/06 19:57:46;;;;;;;49.60;27.30;;;;;;;3.95;80.21;100024.73;209571;1298;245244;-69
2022/11/06 20:02:50;;;;;;;39.50;24.50;;;;;;;4.03;80.24;100016.24;206927;1284;141706;-70
2022/11/06 20:07:54;;;;;;;51.40;30.30;;;;;;;4.08;79.94;100022.68;207256;1301;140399;-68
2022/11/06 20:12:58;;;;;;;40.90;26.30;;;;;;;4.04;80.37;100022.47;207345;1290;142121;-69
2022/11/06 20:18:02;;;;;;;39.90;22.10;;;;;;;3.96;80.36;100020.68;209158;1294;142794;-69
2022/11/06 20:23:06;;;;;;;39.80;22.90;;;;;;;3.89;80.28;100026.60;207031;1295;140779;-69
2022/11/06 20:28:11;;;;;;;34.30;21.80;;;;;;;3.88;80.63;100027.61;210570;1301;140792;-69
2022/11/06 20:33:16;;;;;;;40.90;24.10;;;;;;;3.94;80.76;100022.13;210415;1297;140094;-69
2022/11/06 20:38:20;;;;;;;34.10;22.80;;;;;;;4.00;81.05;100016.30;210513;1291;139848;-69
2022/11/06 20:43:24;;;;;;;44.20;21.30;;;;;;;4.01;81.09;100017.41;210189;1299;139535;-69
2022/11/06 20:48:34;;;;;;;40.00;23.90;;;;;;;4.03;81.30;100019.38;210500;1303;140715;-68
2022/11/06 20:53:39;;;;;;;31.30;20.40;;;;;;;4.09;81.29;100022.04;210380;1299;141447;-69
2022/11/06 20:58:43;;;;;;;35.90;18.60;;;;;;;4.16;81.60;100018.56;210319;1295;142286;-69
2022/11/06 21:03:48;;;;;;;32.30;18.60;;;;;;;4.27;81.88;100021.68;210377;1291;141348;-69
2022/11/06 21:08:54;;;;;;;31.80;18.10;;;;;;;4.32;81.72;100013.04;210332;1301;140862;-69
2022/11/06 21:13:59;;;;;;;38.60;21.00;;;;;;;4.30;81.82;100018.13;210557;1294;140825;-68
2022/11/06 21:19:04;;;;;;;34.80;20.20;;;;;;;4.35;81.65;100018.92;210447;1295;141551;-68
2022/11/06 21:24:12;;;;;;;36.10;19.30;;;;;;;4.39;81.67;100016.56;210378;1301;141138;-68
2022/11/06 21:29:17;;;;;;;33.10;21.80;;;;;;;4.41;81.36;100012.29;210353;1297;140741;-69
2022/11/06 21:34:22;;;;;;;35.10;21.90;;;;;;;4.29;80.83;100006.48;210597;1296;140901;-69
2022/11/06 21:39:27;;;;;;;35.40;20.20;;;;;;;4.19;80.80;100002.48;210263;1295;140698;-68
2022/11/06 21:44:39;;;;;;;29.30;19.00;;;;;;;4.15;81.03;100000.20;210463;1295;140416;-69
2022/11/06 21:49:52;;;;;;;28.80;18.20;;;;;;;4.16;80.95;100000.74;210394;1295;142524;-69
2022/11/06 22:00:21;;;;;;;29.20;18.20;;;;;;;4.08;80.50;99992.96;208741;1302;139563;-68
2022/11/06 22:05:25;;;;;;;30.40;17.60;;;;;;;3.96;80.21;99991.02;210447;1294;139122;-69
2022/11/06 22:10:29;;;;;;;33.70;19.10;;;;;;;3.86;79.80;99987.41;210408;1295;141109;-69
2022/11/06 22:15:33;;;;;;;33.60;18.80;;;;;;;3.63;79.04;99974.92;210536;1295;140602;-69
2022/11/06 22:20:37;;;;;;;38.10;20.40;;;;;;;3.31;79.01;99962.35;208148;1298;139892;-69
2022/11/06 22:25:41;;;;;;;27.00;17.40;;;;;;;3.07;79.28;99956.61;210398;1284;139357;-69
2022/11/06 22:30:46;;;;;;;30.40;19.80;;;;;;;2.92;79.58;99954.54;210336;1289;139264;-69
2022/11/06 22:35:50;;;;;;;38.40;21.20;;;;;;;2.95;80.05;99949.11;210364;1301;142088;-69
2022/11/06 22:40:56;;;;;;;36.70;22.80;;;;;;;3.08;80.66;99937.87;210355;1301;140181;-69
2022/11/06 22:46:03;;;;;;;47.30;23.20;;;;;;;3.28;81.31;99926.85;210430;1295;140956;-68
2022/11/06 22:51:11;;;;;;;43.10;22.80;;;;;;;3.45;82.01;99915.46;208270;1291;140409;-68
2022/11/06 22:56:19;;;;;;;24.20;15.80;;;;;;;3.57;82.36;99918.25;207338;1294;140596;-68
2022/11/06 23:01:24;;;;;;;32.80;18.00;;;;;;;3.69;82.64;99905.40;207282;1291;140269;-68
2022/11/06 23:06:30;;;;;;;32.10;19.00;;;;;;;3.73;83.05;99893.96;210266;1294;139987;-69
2022/11/06 23:11:35;;;;;;;25.20;15.30;;;;;;;3.77;83.33;99886.17;210394;1295;141073;-69
2022/11/06 23:27:28;;;;;;;38.50;19.40;;;;;;;4.13;83.88;99891.77;210481;1301;139707;-69
2022/11/06 23:32:34;;;;;;;34.20;19.50;;;;;;;4.21;83.66;99890.02;210216;1296;140617;-69
2022/11/06 23:37:40;;;;;;;32.80;17.90;;;;;;;4.24;83.82;99884.49;210391;1295;139372;-69
2022/11/06 23:42:53;;;;;;;31.10;19.80;;;;;;;4.25;83.60;99878.94;210395;1295;139513;-69
2022/11/06 23:47:58;;;;;;;26.30;17.00;;;;;;;4.22;83.53;99875.01;210155;1294;140328;-68
2022/11/06 23:53:08;;;;;;;26.30;17.10;;;;;;;4.20;83.65;99883.08;207221;1293;140015;-69
2022/11/06 23:58:12;;;;;;;30.80;16.40;;;;;;;4.21;83.65;99882.80;207318;1285;141328;-69
